createdAt,value
2022-08-04T00:00:11.919Z,101211.66
2022-08-04T00:03:05.567Z,101214.16
2022-08-04T00:05:46.979Z,101210.09
2022-08-04T00:08:31.590Z,101209.00
2022-08-04T00:11:00.272Z,101206.78
2022-08-04T00:13:30.563Z,101208.06
2022-08-04T00:16:05.786Z,101205.03
2022-08-04T00:18:40.908Z,101207.16
2022-08-04T00:21:13.493Z,101198.09
2022-08-04T00:24:10.816Z,101211.31
2022-08-04T00:26:33.814Z,101205.38
2022-08-04T00:29:01.144Z,101209.66
2022-08-04T00:31:52.077Z,101198.41
2022-08-04T00:34:15.150Z,101202.38
2022-08-04T00:36:44.131Z,101189.06
2022-08-04T00:39:16.086Z,101206.84
2022-08-04T00:42:00.859Z,101201.66
2022-08-04T00:44:52.317Z,101197.06
2022-08-04T00:47:29.094Z,101193.22
2022-08-04T00:50:22.523Z,101197.53
2022-08-04T00:53:07.314Z,101200.25
2022-08-04T00:56:24.942Z,101196.31
2022-08-04T00:59:13.035Z,101197.59
2022-08-04T01:01:42.451Z,101188.88
2022-08-04T01:04:22.338Z,101168.03
2022-08-04T01:07:10.706Z,101198.31
2022-08-04T01:09:50.666Z,101195.63
2022-08-04T01:12:17.111Z,101196.75
2022-08-04T01:14:51.380Z,101193.41
2022-08-04T01:17:36.103Z,101183.63
2022-08-04T01:20:07.848Z,101187.72
2022-08-04T01:22:34.269Z,101179.06
2022-08-04T01:25:39.175Z,101184.00
2022-08-04T01:28:44.880Z,101182.09
2022-08-04T01:31:25.806Z,101181.56
2022-08-04T01:33:58.396Z,101164.91
2022-08-04T01:36:33.917Z,101164.13
2022-08-04T01:39:20.991Z,101170.44
2022-08-04T01:41:57.971Z,101169.03
2022-08-04T01:44:28.572Z,101172.28
2022-08-04T01:46:55.270Z,101179.31
2022-08-04T01:49:25.357Z,101172.28
2022-08-04T01:51:52.655Z,101163.50
2022-08-04T01:54:20.022Z,101171.00
2022-08-04T01:56:56.592Z,101163.88
2022-08-04T01:59:23.243Z,101172.88
2022-08-04T02:01:49.841Z,101163.38
2022-08-04T02:04:23.354Z,101159.34
2022-08-04T02:07:20.014Z,101155.19
2022-08-04T02:10:06.563Z,101161.50
2022-08-04T02:12:38.954Z,101153.97
2022-08-04T02:15:23.848Z,101157.56
2022-08-04T02:18:04.354Z,101163.03
2022-08-04T02:20:35.662Z,101155.72
2022-08-04T02:23:06.676Z,101144.25
2022-08-04T02:25:39.843Z,101135.22
2022-08-04T02:28:19.513Z,101150.25
2022-08-04T02:31:03.722Z,101153.47
2022-08-04T02:33:43.114Z,101155.03
2022-08-04T02:36:16.716Z,101151.50
2022-08-04T02:38:52.199Z,101146.06
2022-08-04T02:41:21.690Z,101142.81
2022-08-04T02:43:50.958Z,101142.25
2022-08-04T02:46:21.547Z,101138.19
2022-08-04T02:48:51.458Z,101127.47
2022-08-04T02:51:22.788Z,101141.09
2022-08-04T02:53:53.761Z,101135.03
2022-08-04T02:56:22.561Z,101142.13
2022-08-04T02:58:58.125Z,101132.09
2022-08-04T03:01:26.842Z,101128.81
2022-08-04T03:04:12.588Z,101146.72
2022-08-04T03:07:06.071Z,101121.34
2022-08-04T03:10:06.769Z,101139.34
2022-08-04T03:12:59.056Z,101140.66
2022-08-04T03:15:55.181Z,101133.59
2022-08-04T03:18:36.625Z,101137.88
2022-08-04T03:21:34.050Z,101119.97
2022-08-04T03:24:01.103Z,101129.16
2022-08-04T03:26:40.328Z,101127.78
2022-08-04T03:29:36.243Z,101127.47
2022-08-04T03:32:41.089Z,101122.00
2022-08-04T03:35:45.938Z,101133.59
2022-08-04T03:38:31.387Z,101134.09
2022-08-04T03:41:56.082Z,101131.31
2022-08-04T03:44:33.680Z,101131.31
2022-08-04T03:47:17.688Z,101108.41
2022-08-04T03:50:18.136Z,101131.81
2022-08-04T03:53:08.971Z,101128.69
2022-08-04T03:56:03.494Z,101128.97
2022-08-04T03:58:54.890Z,101120.56
2022-08-04T04:02:01.440Z,101126.00
2022-08-04T04:04:40.603Z,101120.56
2022-08-04T04:07:25.572Z,101125.41
2022-08-04T04:10:36.041Z,101120.56
2022-08-04T04:13:14.841Z,101113.28
2022-08-04T04:15:58.878Z,101122.81
2022-08-04T04:18:52.030Z,101119.25
2022-08-04T04:21:47.625Z,101118.50
2022-08-04T04:24:38.772Z,101122.63
2022-08-04T04:27:36.007Z,101127.47
2022-08-04T04:30:12.427Z,101126.63
2022-08-04T04:32:54.929Z,101116.81
2022-08-04T04:35:33.486Z,101128.59
2022-08-04T04:38:09.298Z,101124.81
2022-08-04T04:40:41.551Z,101119.16
2022-08-04T04:43:17.211Z,101123.81
2022-08-04T04:46:00.189Z,101128.19
2022-08-04T04:48:36.759Z,101127.41
2022-08-04T04:51:14.091Z,101129.63
2022-08-04T04:53:43.551Z,101130.25
2022-08-04T04:56:51.809Z,101134.44
2022-08-04T04:59:23.111Z,101124.69
2022-08-04T05:02:21.404Z,101135.28
2022-08-04T05:05:34.314Z,101132.63
2022-08-04T05:08:43.606Z,101130.25
2022-08-04T05:11:17.043Z,101126.47
2022-08-04T05:14:35.802Z,101135.97
2022-08-04T05:16:50.736Z,101134.09
2022-08-04T05:19:49.117Z,101143.88
2022-08-04T05:22:29.633Z,101142.81
2022-08-04T05:25:08.662Z,101142.28
2022-08-04T05:27:41.086Z,101141.22
2022-08-04T05:30:13.030Z,101143.13
2022-08-04T05:32:55.117Z,101142.59
2022-08-04T05:36:18.701Z,101152.63
2022-08-04T05:38:39.677Z,101150.50
2022-08-04T05:41:09.600Z,101156.97
2022-08-04T05:43:41.738Z,101151.06
2022-08-04T05:46:11.193Z,101157.59
2022-08-04T05:48:38.730Z,101158.19
2022-08-04T05:51:06.875Z,101158.50
2022-08-04T05:53:34.618Z,101147.16
2022-08-04T05:56:03.226Z,101147.44
2022-08-04T05:58:30.952Z,101154.28
2022-08-04T06:01:01.478Z,101158.88
2022-08-04T06:03:30.863Z,101157.53
2022-08-04T06:05:58.584Z,101155.13
2022-08-04T06:08:25.556Z,101154.69
2022-08-04T06:10:54.025Z,101160.97
2022-08-04T06:13:49.039Z,101161.28
2022-08-04T06:16:29.888Z,101152.13
2022-08-04T06:19:59.164Z,101148.63
2022-08-04T06:21:49.953Z,101157.38
2022-08-04T06:24:20.418Z,101160.72
2022-08-04T06:26:49.315Z,101158.34
2022-08-04T06:29:24.859Z,101162.97
2022-08-04T06:32:30.120Z,101149.38
2022-08-04T06:34:46.533Z,101155.16
2022-08-04T06:37:40.762Z,101152.44
2022-08-04T06:40:05.220Z,101159.25
2022-08-04T06:42:51.822Z,101161.97
2022-08-04T06:45:20.664Z,101165.25
2022-08-04T06:47:48.400Z,101162.81
2022-08-04T06:51:24.918Z,101169.16
2022-08-04T06:53:02.419Z,101171.09
2022-08-04T06:55:29.324Z,101171.38
2022-08-04T06:57:59.623Z,101178.22
2022-08-04T07:00:30.605Z,101176.63
2022-08-04T07:02:57.970Z,101173.38
2022-08-04T07:05:25.150Z,101174.50
2022-08-04T07:07:57.543Z,101176.41
2022-08-04T07:10:25.279Z,101183.28
2022-08-04T07:12:52.945Z,101177.28
2022-08-04T07:15:21.324Z,101183.31
2022-08-04T07:17:49.690Z,101192.31
2022-08-04T07:20:34.284Z,101194.75
2022-08-04T07:23:03.739Z,101190.38
2022-08-04T07:25:59.842Z,101195.00
2022-08-04T07:28:17.385Z,101201.28
2022-08-04T07:30:45.054Z,101189.88
2022-08-04T07:33:11.773Z,101199.44
2022-08-04T07:36:05.958Z,101203.84
2022-08-04T07:38:27.522Z,101198.94
2022-08-04T07:40:55.377Z,101200.94
2022-08-04T07:43:22.809Z,101194.13
2022-08-04T07:45:49.653Z,101203.13
2022-08-04T07:48:18.757Z,101207.78
2022-08-04T07:50:46.788Z,101200.44
2022-08-04T07:53:55.225Z,101194.72
2022-08-04T07:56:02.540Z,101195.84
2022-08-04T07:58:30.194Z,101197.75
2022-08-04T08:00:57.977Z,101192.31
2022-08-04T08:03:25.635Z,101188.25
2022-08-04T08:06:16.493Z,101195.06
2022-08-04T08:08:39.710Z,101196.72
2022-08-04T08:11:09.597Z,101194.53
2022-08-04T08:13:36.636Z,101202.75
2022-08-04T08:16:04.954Z,101179.84
2022-08-04T08:18:31.963Z,101200.03
2022-08-04T08:20:58.624Z,101198.66
2022-08-04T08:23:26.389Z,101206.28
2022-08-04T08:25:52.919Z,101201.38
2022-08-04T08:28:19.646Z,101200.28
2022-08-04T08:30:46.093Z,101203.00
2022-08-04T08:33:20.633Z,101191.00
2022-08-04T08:35:54.906Z,101191.53
2022-08-04T08:38:32.333Z,101199.69
2022-08-04T08:41:18.216Z,101192.56
2022-08-04T08:44:07.711Z,101198.28
2022-08-04T08:46:53.725Z,101207.03
2022-08-04T08:50:01.548Z,101207.00
2022-08-04T08:52:55.317Z,101191.16
2022-08-04T08:55:35.032Z,101182.44
2022-08-04T08:58:30.050Z,101186.31
2022-08-04T09:01:07.337Z,101205.97
2022-08-04T09:03:51.527Z,101201.00
2022-08-04T09:06:46.034Z,101205.91
2022-08-04T09:09:31.257Z,101207.63
2022-08-04T09:12:25.811Z,101197.44
2022-08-04T09:15:10.219Z,101192.19
2022-08-04T09:17:54.083Z,101208.56
2022-08-04T09:20:23.442Z,101209.84
2022-08-04T09:22:54.573Z,101195.97
2022-08-04T09:25:30.788Z,101211.66
2022-08-04T09:28:09.132Z,101190.03
2022-08-04T09:30:45.494Z,101213.56
2022-08-04T09:33:45.167Z,101222.13
2022-08-04T09:36:26.763Z,101224.94
2022-08-04T09:39:06.391Z,101237.00
2022-08-04T09:41:56.021Z,101233.72
2022-08-04T09:44:50.770Z,101234.03
2022-08-04T09:47:39.338Z,101238.72
2022-08-04T09:50:30.582Z,101246.63
2022-08-04T09:53:06.425Z,101244.41
2022-08-04T09:55:53.404Z,101243.06
2022-08-04T09:58:38.999Z,101247.66
2022-08-04T10:01:11.558Z,101241.38
2022-08-04T10:03:43.594Z,101248.69
2022-08-04T10:06:19.341Z,101250.78
2022-08-04T10:09:00.197Z,101247.19
2022-08-04T10:11:54.350Z,101243.09
2022-08-04T10:14:38.984Z,101268.50
2022-08-04T10:17:26.778Z,101262.75
2022-08-04T10:20:36.491Z,101262.34
2022-08-04T10:23:15.866Z,101251.59
2022-08-04T10:26:06.095Z,101242.88
2022-08-04T10:28:58.429Z,101224.06
2022-08-04T10:31:30.175Z,101244.28
2022-08-04T10:34:11.662Z,101208.66
2022-08-04T10:37:00.939Z,101247.94
2022-08-04T10:40:17.238Z,101256.34
2022-08-04T10:42:56.991Z,101242.16
2022-08-04T10:45:34.274Z,101260.59
2022-08-04T10:48:34.953Z,101243.00
2022-08-04T10:51:19.025Z,101269.38
2022-08-04T10:53:52.472Z,101254.53
2022-08-04T10:56:44.009Z,101250.84
2022-08-04T10:59:22.065Z,101252.38
2022-08-04T11:02:02.563Z,101256.22
2022-08-04T11:04:44.348Z,101264.41
2022-08-04T11:07:12.374Z,101276.84
2022-08-04T11:09:40.130Z,101278.19
2022-08-04T11:12:12.679Z,101263.81
2022-08-04T11:14:50.165Z,101257.22
2022-08-04T11:17:25.611Z,101263.69
2022-08-04T11:20:18.228Z,101268.59
2022-08-04T11:23:06.556Z,101249.97
2022-08-04T11:25:42.451Z,101262.75
2022-08-04T11:28:24.912Z,101264.47
2022-08-04T11:30:57.038Z,101274.91
2022-08-04T11:33:29.363Z,101277.88
2022-08-04T11:36:05.781Z,101284.94
2022-08-04T11:38:52.130Z,101291.84
2022-08-04T11:41:26.444Z,101300.19
2022-08-04T11:44:01.677Z,101288.00
2022-08-04T11:46:42.819Z,101304.75
2022-08-04T11:49:24.354Z,101315.13
2022-08-04T11:51:52.756Z,101292.97
2022-08-04T11:54:21.700Z,101282.47
2022-08-04T11:56:48.256Z,101295.25
2022-08-04T11:59:14.924Z,101295.09
2022-08-04T12:01:57.447Z,101297.84
2022-08-04T12:05:00.198Z,101307.91
2022-08-04T12:08:04.919Z,101298.03
2022-08-04T12:11:02.789Z,101296.84
2022-08-04T12:13:45.750Z,101294.00
2022-08-04T12:16:20.115Z,101297.59
2022-08-04T12:18:57.520Z,101293.00
2022-08-04T12:21:39.535Z,101301.91
2022-08-04T12:24:20.116Z,101276.81
2022-08-04T12:26:56.117Z,101297.75
2022-08-04T12:29:26.112Z,101292.84
2022-08-04T12:32:13.415Z,101298.00
2022-08-04T12:35:08.671Z,101303.81
2022-08-04T12:38:08.947Z,101301.41
2022-08-04T12:40:42.277Z,101311.00
2022-08-04T12:43:24.583Z,101320.41
2022-08-04T12:45:55.145Z,101326.50
2022-08-04T12:48:23.521Z,101298.06
2022-08-04T12:50:52.402Z,101335.31
2022-08-04T12:53:31.437Z,101338.22
2022-08-04T12:56:01.813Z,101345.44
2022-08-04T12:58:43.367Z,101324.34
2022-08-04T13:02:11.027Z,101354.66
2022-08-04T13:04:21.789Z,101355.94
2022-08-04T13:07:01.915Z,101348.25
2022-08-04T13:09:34.180Z,101343.25
2022-08-04T13:12:06.254Z,101353.31
2022-08-04T13:14:38.301Z,101349.84
2022-08-04T13:17:06.515Z,101353.22
2022-08-04T13:19:41.381Z,101359.97
2022-08-04T13:22:08.830Z,101364.66
2022-08-04T13:24:56.377Z,101367.44
2022-08-04T13:27:24.708Z,101366.34
2022-08-04T13:29:58.690Z,101357.31
2022-08-04T13:32:31.144Z,101357.31
2022-08-04T13:35:00.817Z,101353.03
2022-08-04T13:37:34.786Z,101355.75
2022-08-04T13:40:04.852Z,101353.53
2022-08-04T13:42:35.849Z,101345.38
2022-08-04T13:45:06.276Z,101356.53
2022-08-04T13:47:37.289Z,101352.91
2022-08-04T13:50:16.013Z,101362.53
2022-08-04T13:52:43.782Z,101367.56
2022-08-04T13:55:26.667Z,101366.44
2022-08-04T13:57:59.040Z,101342.13
2022-08-04T14:00:37.404Z,101359.28
2022-08-04T14:03:18.990Z,101354.38
2022-08-04T14:06:21.495Z,101358.53
2022-08-04T14:08:54.506Z,101361.28
2022-08-04T14:12:09.411Z,101373.91
2022-08-04T14:14:34.651Z,101353.81
2022-08-04T14:17:19.691Z,101360.06
2022-08-04T14:19:46.935Z,101363.59
2022-08-04T14:22:26.329Z,101364.16
2022-08-04T14:25:08.961Z,101369.66
2022-08-04T14:27:47.668Z,101383.88
2022-08-04T14:30:25.067Z,101372.38
2022-08-04T14:34:03.204Z,101372.91
2022-08-04T14:35:58.499Z,101365.00
2022-08-04T14:38:40.924Z,101372.38
2022-08-04T14:41:07.420Z,101375.13
2022-08-04T14:43:42.220Z,101377.03
2022-08-04T14:46:10.429Z,101375.41
2022-08-04T14:48:42.371Z,101374.00
2022-08-04T14:51:16.077Z,101373.50
2022-08-04T14:53:47.423Z,101349.78
2022-08-04T14:56:37.363Z,101370.53
2022-08-04T14:59:03.978Z,101372.72
2022-08-04T15:01:30.746Z,101374.06
2022-08-04T15:04:00.493Z,101361.47
2022-08-04T15:06:28.852Z,101370.72
2022-08-04T15:08:58.317Z,101366.25
2022-08-04T15:11:26.363Z,101372.47
2022-08-04T15:13:54.387Z,101374.78
2022-08-04T15:16:22.350Z,101361.78
2022-08-04T15:18:50.066Z,101379.81
2022-08-04T15:21:17.297Z,101372.44
2022-08-04T15:23:43.859Z,101380.63
2022-08-04T15:26:16.907Z,101373.81
2022-08-04T15:28:50.353Z,101372.97
2022-08-04T15:32:06.742Z,101379.81
2022-08-04T15:34:09.950Z,101390.72
2022-08-04T15:36:57.940Z,101383.88
2022-08-04T15:39:44.504Z,101389.88
2022-08-04T15:42:21.458Z,101381.16
2022-08-04T15:44:51.130Z,101385.25
2022-08-04T15:47:18.065Z,101389.88
2022-08-04T15:49:45.500Z,101397.25
2022-08-04T15:52:18.209Z,101398.59
2022-08-04T15:54:52.529Z,101413.03
2022-08-04T15:57:59.361Z,101412.22
2022-08-04T16:00:26.002Z,101398.81
2022-08-04T16:02:52.575Z,101411.03
2022-08-04T16:05:19.092Z,101411.81
2022-08-04T16:07:58.383Z,101409.88
2022-08-04T16:10:30.731Z,101418.31
2022-08-04T16:13:03.288Z,101414.19
2022-08-04T16:15:53.346Z,101413.31
2022-08-04T16:18:38.378Z,101417.47
2022-08-04T16:21:17.641Z,101407.56
2022-08-04T16:23:56.009Z,101414.41
2022-08-04T16:26:42.391Z,101405.16
2022-08-04T16:29:31.801Z,101398.13
2022-08-04T16:32:04.218Z,101407.63
2022-08-04T16:34:54.665Z,101404.03
2022-08-04T16:37:33.859Z,101389.00
2022-08-04T16:40:38.740Z,101403.97
2022-08-04T16:43:07.614Z,101397.44
2022-08-04T16:45:43.979Z,101403.13
2022-08-04T16:48:12.261Z,101407.00
2022-08-04T16:50:48.633Z,101399.38
2022-08-04T16:53:53.432Z,101403.50
2022-08-04T16:56:05.017Z,101405.34
2022-08-04T16:58:36.861Z,101404.47
2022-08-04T17:01:32.327Z,101412.31
2022-08-04T17:04:05.213Z,101406.84
2022-08-04T17:06:43.542Z,101412.50
2022-08-04T17:09:18.958Z,101408.28
2022-08-04T17:11:47.496Z,101412.91
2022-08-04T17:14:22.791Z,101414.41
2022-08-04T17:16:49.550Z,101414.69
2022-08-04T17:19:23.784Z,101424.41
2022-08-04T17:22:02.240Z,101405.13
2022-08-04T17:24:29.896Z,101395.00
2022-08-04T17:26:58.160Z,101380.19
2022-08-04T17:32:20.751Z,101386.78
2022-08-04T17:34:55.606Z,101392.50
2022-08-04T17:37:52.592Z,101399.50
2022-08-04T17:40:18.559Z,101401.16
2022-08-04T17:46:33.934Z,101410.91
2022-08-04T17:49:16.705Z,101412.13
2022-08-04T17:52:05.208Z,101410.69
2022-08-04T17:54:43.423Z,101416.41
2022-08-04T17:57:15.647Z,101408.13
2022-08-04T17:59:57.163Z,101425.88
2022-08-04T18:02:33.439Z,101423.16
2022-08-04T18:05:07.770Z,101423.09
2022-08-04T18:08:39.304Z,101421.66
2022-08-04T18:10:51.606Z,101430.81
2022-08-04T18:13:24.874Z,101433.13
2022-08-04T18:16:02.577Z,101428.06
2022-08-04T18:18:29.861Z,101439.59
2022-08-04T18:20:56.425Z,101447.47
2022-08-04T18:23:32.141Z,101443.63
2022-08-04T18:26:02.424Z,101447.03
2022-08-04T18:28:31.329Z,101450.56
2022-08-04T18:30:59.850Z,101445.88
2022-08-04T18:33:39.642Z,101447.59
2022-08-04T18:36:32.666Z,101443.78
2022-08-04T18:38:59.185Z,101443.06
2022-08-04T18:42:02.110Z,101429.50
2022-08-04T18:44:29.017Z,101452.16
2022-08-04T18:47:19.042Z,101454.28
2022-08-04T18:50:59.018Z,101456.06
2022-08-04T18:52:33.383Z,101464.22
2022-08-04T18:55:01.813Z,101468.94
2022-08-04T18:57:58.757Z,101468.00
2022-08-04T19:00:17.371Z,101471.47
2022-08-04T19:02:46.725Z,101466.31
2022-08-04T19:05:17.421Z,101474.19
2022-08-04T19:08:11.455Z,101482.09
2022-08-04T19:10:32.328Z,101480.69
2022-08-04T19:13:01.412Z,101490.88
2022-08-04T19:15:34.463Z,101501.88
2022-08-04T19:18:02.064Z,101503.47
2022-08-04T19:20:29.658Z,101505.00
2022-08-04T19:26:01.563Z,101518.75
2022-08-04T19:28:34.378Z,101522.44
2022-08-04T19:31:05.672Z,101524.56
2022-08-04T19:33:58.029Z,101517.38
2022-08-04T19:36:19.003Z,101522.34
2022-08-04T19:38:45.524Z,101511.97
2022-08-04T19:41:14.805Z,101519.19
2022-08-04T19:43:44.029Z,101521.06
2022-08-04T19:46:12.196Z,101523.31
2022-08-04T19:48:39.428Z,101512.09
2022-08-04T19:51:05.909Z,101513.19
2022-08-04T19:53:37.516Z,101510.97
2022-08-04T19:56:09.527Z,101519.31
2022-08-04T19:58:38.630Z,101518.75
2022-08-04T20:01:05.117Z,101518.16
2022-08-04T20:04:09.537Z,101527.03
2022-08-04T20:06:37.853Z,101523.50
2022-08-04T20:09:04.357Z,101529.06
2022-08-04T20:11:50.897Z,101521.97
2022-08-04T20:14:17.726Z,101526.00
2022-08-04T20:16:46.330Z,101537.78
2022-08-04T20:19:14.138Z,101532.38
2022-08-04T20:21:55.994Z,101553.25
2022-08-04T20:24:37.560Z,101544.06
2022-08-04T20:27:15.783Z,101544.75
2022-08-04T20:29:48.414Z,101536.84
2022-08-04T20:32:16.739Z,101549.00
2022-08-04T20:34:46.257Z,101554.66
2022-08-04T20:37:15.348Z,101555.50
2022-08-04T20:39:42.306Z,101562.78
2022-08-04T20:42:11.442Z,101565.25
2022-08-04T20:44:42.231Z,101560.06
2022-08-04T20:47:14.056Z,101568.81
2022-08-04T20:49:40.985Z,101570.44
2022-08-04T20:52:16.431Z,101563.13
2022-08-04T20:54:48.345Z,101568.31
2022-08-04T21:00:02.545Z,101567.38
2022-08-04T21:02:29.393Z,101567.38
2022-08-04T21:04:55.896Z,101573.03
2022-08-04T21:07:25.004Z,101573.75
2022-08-04T21:09:52.159Z,101561.50
2022-08-04T21:12:27.639Z,101549.00
2022-08-04T21:14:56.730Z,101545.47
2022-08-04T21:17:58.713Z,101540.53
2022-08-04T21:20:12.958Z,101547.84
2022-08-04T21:22:40.315Z,101545.84
2022-08-04T21:25:07.697Z,101544.78
2022-08-04T21:27:42.411Z,101543.13
2022-08-04T21:30:24.185Z,101541.25
2022-08-04T21:32:52.756Z,101530.31
2022-08-04T21:35:19.595Z,101542.31
2022-08-04T21:37:58.126Z,101536.31
2022-08-04T21:40:36.707Z,101537.84
2022-08-04T21:43:05.141Z,101542.53
2022-08-04T21:45:36.219Z,101543.84
2022-08-04T21:48:03.221Z,101545.13
2022-08-04T21:50:31.140Z,101541.63
2022-08-04T21:52:57.664Z,101539.25
2022-08-04T21:55:25.823Z,101544.53
2022-08-04T21:58:13.297Z,101544.34
2022-08-04T22:00:40.270Z,101540.44
2022-08-04T22:03:11.263Z,101536.53
2022-08-04T22:05:53.339Z,101519.94
2022-08-04T22:08:20.108Z,101524.69
2022-08-04T22:10:50.119Z,101528.91
2022-08-04T22:13:22.449Z,101526.66
2022-08-04T22:16:04.049Z,101525.59
2022-08-04T22:18:32.263Z,101517.94
2022-08-04T22:21:04.018Z,101523.13
2022-08-04T22:23:45.202Z,101531.00
2022-08-04T22:26:14.389Z,101521.59
2022-08-04T22:28:46.876Z,101523.97
2022-08-04T22:31:24.219Z,101528.31
2022-08-04T22:33:54.468Z,101529.63
2022-08-04T22:36:24.865Z,101527.72
2022-08-04T22:39:01.497Z,101516.88
2022-08-04T22:41:34.482Z,101512.66
2022-08-04T22:44:15.613Z,101524.53
2022-08-04T22:46:42.644Z,101523.50
2022-08-04T22:49:09.072Z,101524.28
2022-08-04T22:51:36.063Z,101526.19
2022-08-04T22:54:02.453Z,101516.16
2022-08-04T22:56:39.289Z,101510.19
2022-08-04T22:59:10.087Z,101511.22
2022-08-04T23:01:58.977Z,101517.13
2022-08-04T23:04:25.537Z,101519.59
2022-08-04T23:06:52.808Z,101508.75
2022-08-04T23:09:19.195Z,101500.03
2022-08-04T23:11:50.518Z,101508.63
2022-08-04T23:14:20.592Z,101510.38
2022-08-04T23:16:48.705Z,101513.56
2022-08-04T23:19:19.965Z,101511.00
2022-08-04T23:22:01.973Z,101507.34
2022-08-04T23:24:29.601Z,101496.75
2022-08-04T23:26:57.033Z,101509.47
2022-08-04T23:29:23.642Z,101514.06
2022-08-04T23:31:59.089Z,101509.72
2022-08-04T23:34:27.592Z,101512.41
2022-08-04T23:36:56.126Z,101505.56
2022-08-04T23:39:25.619Z,101514.28
2022-08-04T23:42:15.075Z,101504.28
2022-08-04T23:44:47.626Z,101511.47
2022-08-04T23:48:19.022Z,101526.06
2022-08-04T23:50:00.481Z,101523.81
2022-08-04T23:52:30.027Z,101540.53
2022-08-04T23:55:00.760Z,101537.81
2022-08-04T23:57:31.151Z,101520.41
